createdAt,value
2023-09-21T00:00:12.677Z,14.33
2023-09-21T00:01:12.571Z,14.32
2023-09-21T00:02:12.593Z,14.32
2023-09-21T00:03:12.606Z,14.29
2023-09-21T00:04:12.571Z,14.29
2023-09-21T00:05:12.489Z,14.29
2023-09-21T00:06:12.527Z,14.27
2023-09-21T00:07:12.475Z,14.25
2023-09-21T00:08:12.505Z,14.24
2023-09-21T00:09:12.507Z,14.21
2023-09-21T00:10:12.455Z,14.18
2023-09-21T00:11:12.427Z,14.18
2023-09-21T00:12:12.486Z,14.14
2023-09-21T00:13:12.414Z,14.14
2023-09-21T00:14:12.424Z,14.12
2023-09-21T00:15:12.390Z,14.10
2023-09-21T00:16:12.405Z,14.10
2023-09-21T00:17:12.364Z,14.07
2023-09-21T00:18:12.449Z,14.06
2023-09-21T00:19:12.354Z,14.04
2023-09-21T00:20:12.374Z,14.07
2023-09-21T00:21:12.339Z,14.07
2023-09-21T00:22:12.360Z,14.09
2023-09-21T00:23:12.305Z,14.10
2023-09-21T00:24:12.357Z,14.07
2023-09-21T00:25:12.290Z,14.07
2023-09-21T00:26:12.299Z,14.07
2023-09-21T00:27:12.284Z,14.09
2023-09-21T00:28:12.269Z,14.07
2023-09-21T00:29:12.247Z,14.06
2023-09-21T00:30:12.286Z,14.04
2023-09-21T00:31:12.242Z,14.04
2023-09-21T00:32:12.240Z,14.06
2023-09-21T00:33:12.248Z,14.04
2023-09-21T00:34:12.205Z,14.04
2023-09-21T00:35:12.167Z,14.02
2023-09-21T00:36:12.206Z,14.02
2023-09-21T00:37:12.140Z,14.02
2023-09-21T00:38:12.149Z,14.00
2023-09-21T00:39:12.207Z,14.00
2023-09-21T00:40:12.138Z,14.02
2023-09-21T00:41:12.113Z,14.03
2023-09-21T00:42:12.147Z,14.03
2023-09-21T00:43:12.090Z,13.99
2023-09-21T00:44:12.098Z,13.97
2023-09-21T00:45:12.128Z,13.96
2023-09-21T00:46:12.076Z,13.95
2023-09-21T00:47:12.028Z,13.95
2023-09-21T00:48:12.256Z,13.92
2023-09-21T00:49:12.011Z,13.89
2023-09-21T00:50:12.037Z,13.88
2023-09-21T00:51:12.028Z,13.88
2023-09-21T00:52:11.997Z,13.89
2023-09-21T00:53:11.972Z,13.87
2023-09-21T00:54:12.027Z,13.85
2023-09-21T00:55:11.958Z,13.85
2023-09-21T00:56:11.972Z,13.84
2023-09-21T00:57:11.959Z,13.84
2023-09-21T00:58:11.944Z,13.82
2023-09-21T00:59:11.906Z,13.79
2023-09-21T01:00:11.964Z,13.78
2023-09-21T01:01:11.903Z,13.77
2023-09-21T01:02:11.889Z,13.75
2023-09-21T01:03:11.941Z,13.70
2023-09-21T01:04:12.060Z,13.69
2023-09-21T01:05:11.836Z,13.66
2023-09-21T01:06:11.894Z,13.66
2023-09-21T01:07:11.818Z,13.66
2023-09-21T01:08:11.843Z,13.67
2023-09-21T01:09:11.863Z,13.64
2023-09-21T01:10:11.833Z,13.66
2023-09-21T01:11:11.768Z,13.64
2023-09-21T01:12:11.823Z,13.62
2023-09-21T01:13:11.753Z,13.63
2023-09-21T01:14:11.772Z,13.62
2023-09-21T01:15:11.953Z,13.63
2023-09-21T01:16:11.819Z,13.63
2023-09-21T01:17:11.699Z,13.63
2023-09-21T01:18:11.788Z,13.60
2023-09-21T01:19:13.103Z,13.60
2023-09-21T01:20:11.699Z,13.60
2023-09-21T01:21:11.728Z,13.60
2023-09-21T01:22:11.679Z,13.60
2023-09-21T01:23:11.634Z,13.59
2023-09-21T01:24:11.706Z,13.57
2023-09-21T01:25:11.618Z,13.59
2023-09-21T01:26:11.651Z,13.55
2023-09-21T01:27:11.682Z,13.54
2023-09-21T01:28:11.610Z,13.51
2023-09-21T01:29:11.569Z,13.51
2023-09-21T01:30:11.642Z,13.49
2023-09-21T01:31:11.611Z,13.48
2023-09-21T01:32:11.569Z,13.48
2023-09-21T01:33:11.606Z,13.45
2023-09-21T01:34:11.554Z,13.44
2023-09-21T01:35:11.501Z,13.44
2023-09-21T01:36:11.565Z,13.42
2023-09-21T01:37:11.493Z,13.42
2023-09-21T01:38:11.525Z,13.41
2023-09-21T01:39:11.484Z,13.39
2023-09-21T01:40:11.472Z,13.36
2023-09-21T01:41:11.466Z,13.33
2023-09-21T01:42:11.560Z,13.32
2023-09-21T01:43:11.447Z,13.32
2023-09-21T01:44:11.462Z,13.30
2023-09-21T01:45:11.458Z,13.29
2023-09-21T01:46:11.410Z,13.29
2023-09-21T01:47:11.370Z,13.29
2023-09-21T01:48:11.536Z,13.28
2023-09-21T01:49:11.360Z,13.26
2023-09-21T01:50:11.369Z,13.26
2023-09-21T01:51:11.352Z,13.26
2023-09-21T01:52:11.352Z,13.25
2023-09-21T01:53:11.319Z,13.25
2023-09-21T01:54:11.415Z,13.25
2023-09-21T01:55:11.308Z,13.23
2023-09-21T01:56:11.304Z,13.23
2023-09-21T01:57:11.299Z,13.23
2023-09-21T01:58:11.269Z,13.23
2023-09-21T01:59:11.268Z,13.23
2023-09-21T02:00:11.327Z,13.23
2023-09-21T02:01:11.240Z,13.23
2023-09-21T02:02:11.360Z,13.22
2023-09-21T02:03:11.301Z,13.22
2023-09-21T02:04:11.294Z,13.22
2023-09-21T02:05:11.193Z,13.20
2023-09-21T02:06:11.208Z,13.20
2023-09-21T02:07:11.155Z,13.19
2023-09-21T02:08:11.264Z,13.19
2023-09-21T02:09:11.261Z,13.17
2023-09-21T02:10:11.121Z,13.14
2023-09-21T02:11:11.118Z,13.14
2023-09-21T02:12:11.151Z,13.12
2023-09-21T02:13:11.132Z,13.11
2023-09-21T02:14:11.090Z,13.11
2023-09-21T02:15:11.154Z,13.10
2023-09-21T02:16:11.080Z,13.08
2023-09-21T02:17:11.046Z,13.07
2023-09-21T02:18:11.250Z,13.05
2023-09-21T02:19:11.612Z,13.03
2023-09-21T02:20:11.055Z,13.03
2023-09-21T02:21:11.050Z,13.03
2023-09-21T02:22:11.027Z,13.03
2023-09-21T02:23:10.981Z,13.03
2023-09-21T02:24:11.009Z,13.00
2023-09-21T02:25:10.957Z,13.01
2023-09-21T02:26:11.271Z,13.00
2023-09-21T02:27:10.965Z,13.00
2023-09-21T02:28:11.024Z,12.97
2023-09-21T02:29:10.930Z,12.97
2023-09-21T02:30:10.962Z,12.97
2023-09-21T02:31:10.981Z,12.96
2023-09-21T02:32:10.908Z,12.95
2023-09-21T02:33:10.941Z,12.95
2023-09-21T02:34:10.902Z,12.93
2023-09-21T02:35:10.845Z,12.92
2023-09-21T02:36:10.876Z,12.92
2023-09-21T02:37:10.845Z,12.90
2023-09-21T02:38:10.919Z,12.90
2023-09-21T02:39:10.836Z,12.89
2023-09-21T02:40:10.836Z,12.89
2023-09-21T02:41:10.792Z,12.86
2023-09-21T02:42:10.816Z,12.85
2023-09-21T02:43:10.766Z,12.83
2023-09-21T02:44:10.781Z,12.82
2023-09-21T02:45:10.775Z,12.82
2023-09-21T02:46:10.760Z,12.79
2023-09-21T02:47:10.712Z,12.77
2023-09-21T02:48:10.808Z,12.78
2023-09-21T02:49:10.690Z,12.77
2023-09-21T02:50:10.712Z,12.74
2023-09-21T02:51:10.731Z,12.71
2023-09-21T02:52:10.674Z,12.70
2023-09-21T02:53:10.675Z,12.68
2023-09-21T02:54:10.700Z,12.67
2023-09-21T02:55:10.625Z,12.67
2023-09-21T02:56:10.644Z,12.64
2023-09-21T02:57:10.613Z,12.64
2023-09-21T02:58:10.633Z,12.64
2023-09-21T02:59:10.580Z,12.64
2023-09-21T03:00:10.645Z,12.64
2023-09-21T03:01:10.618Z,12.62
2023-09-21T03:02:10.628Z,12.64
2023-09-21T03:03:10.681Z,12.64
2023-09-21T03:04:10.617Z,12.65
2023-09-21T03:05:10.553Z,12.64
2023-09-21T03:06:10.589Z,12.65
2023-09-21T03:07:10.503Z,12.64
2023-09-21T03:08:10.543Z,12.64
2023-09-21T03:09:10.526Z,12.64
2023-09-21T03:10:10.521Z,12.64
2023-09-21T03:11:10.460Z,12.62
2023-09-21T03:12:10.521Z,12.62
2023-09-21T03:13:10.429Z,12.62
2023-09-21T03:14:10.463Z,12.60
2023-09-21T03:15:10.464Z,12.64
2023-09-21T03:16:10.592Z,12.62
2023-09-21T03:17:10.389Z,12.60
2023-09-21T03:18:10.476Z,12.60
2023-09-21T03:19:10.373Z,12.59
2023-09-21T03:20:10.375Z,12.57
2023-09-21T03:21:10.373Z,12.56
2023-09-21T03:22:10.328Z,12.53
2023-09-21T03:23:10.335Z,12.53
2023-09-21T03:24:10.325Z,12.49
2023-09-21T03:25:10.326Z,12.46
2023-09-21T03:26:10.300Z,12.41
2023-09-21T03:27:10.415Z,12.39
2023-09-21T03:28:10.278Z,12.38
2023-09-21T03:29:10.283Z,12.35
2023-09-21T03:30:10.280Z,12.32
2023-09-21T03:31:10.257Z,12.28
2023-09-21T03:32:10.228Z,12.24
2023-09-21T03:33:10.344Z,12.20
2023-09-21T03:34:10.204Z,12.17
2023-09-21T03:35:10.222Z,12.14
2023-09-21T03:36:10.207Z,12.12
2023-09-21T03:37:10.183Z,12.10
2023-09-21T03:38:10.255Z,12.09
2023-09-21T03:39:10.221Z,12.07
2023-09-21T03:40:10.137Z,12.07
2023-09-21T03:41:10.139Z,12.02
2023-09-21T03:42:10.197Z,12.02
2023-09-21T03:43:10.144Z,11.99
2023-09-21T03:44:10.103Z,11.98
2023-09-21T03:45:10.179Z,11.96
2023-09-21T03:46:10.117Z,11.96
2023-09-21T03:47:10.071Z,11.91
2023-09-21T03:48:10.391Z,11.90
2023-09-21T03:49:13.183Z,11.91
2023-09-21T03:50:10.035Z,11.91
2023-09-21T03:51:10.069Z,11.94
2023-09-21T03:52:10.004Z,11.94
2023-09-21T03:53:10.360Z,11.96
2023-09-21T03:54:10.014Z,11.99
2023-09-21T03:55:09.999Z,12.01
2023-09-21T03:56:09.980Z,11.99
2023-09-21T03:57:10.039Z,11.99
2023-09-21T03:58:10.103Z,11.99
2023-09-21T03:59:09.940Z,12.01
2023-09-21T04:00:09.983Z,12.02
2023-09-21T04:01:09.939Z,12.01
2023-09-21T04:02:09.895Z,12.02
2023-09-21T04:03:10.091Z,12.05
2023-09-21T04:04:09.951Z,12.07
2023-09-21T04:05:09.892Z,12.09
2023-09-21T04:06:09.905Z,12.09
2023-09-21T04:07:09.861Z,12.07
2023-09-21T04:08:10.059Z,12.09
2023-09-21T04:09:09.882Z,12.10
2023-09-21T04:10:09.807Z,12.10
2023-09-21T04:11:09.825Z,12.10
2023-09-21T04:12:09.819Z,12.07
2023-09-21T04:13:09.795Z,12.02
2023-09-21T04:14:18.210Z,11.99
2023-09-21T04:15:09.803Z,11.95
2023-09-21T04:16:09.772Z,11.94
2023-09-21T04:17:09.766Z,11.95
2023-09-21T04:18:09.793Z,11.96
2023-09-21T04:19:09.737Z,11.98
2023-09-21T04:20:09.735Z,11.96
2023-09-21T04:21:18.843Z,11.98
2023-09-21T04:22:09.686Z,11.99
2023-09-21T04:23:09.691Z,11.99
2023-09-21T04:24:09.723Z,11.99
2023-09-21T04:25:09.687Z,11.98
2023-09-21T04:26:09.630Z,11.96
2023-09-21T04:27:09.661Z,11.96
2023-09-21T04:28:09.644Z,11.95
2023-09-21T04:29:09.640Z,11.91
2023-09-21T04:30:09.631Z,11.91
2023-09-21T04:31:09.610Z,11.90
2023-09-21T04:32:09.571Z,11.88
2023-09-21T04:33:09.609Z,11.90
2023-09-21T04:34:09.544Z,11.90
2023-09-21T04:35:09.526Z,11.94
2023-09-21T04:36:09.475Z,11.94
2023-09-21T04:37:09.526Z,11.98
2023-09-21T04:38:09.519Z,11.99
2023-09-21T04:39:09.574Z,12.01
2023-09-21T04:40:09.447Z,12.04
2023-09-21T04:41:09.498Z,12.05
2023-09-21T04:42:09.502Z,12.05
2023-09-21T04:43:09.442Z,12.05
2023-09-21T04:44:09.388Z,12.05
2023-09-21T04:45:09.435Z,12.05
2023-09-21T04:46:09.413Z,12.05
2023-09-21T04:47:09.382Z,12.05
2023-09-21T04:48:09.386Z,12.05
2023-09-21T04:49:09.388Z,12.07
2023-09-21T04:50:10.203Z,12.09
2023-09-21T04:51:11.410Z,12.09
2023-09-21T04:52:09.295Z,12.09
2023-09-21T04:53:09.299Z,12.09
2023-09-21T04:54:09.303Z,12.09
2023-09-21T04:55:09.286Z,12.09
2023-09-21T04:56:09.284Z,12.05
2023-09-21T04:57:09.296Z,12.10
2023-09-21T04:58:09.231Z,12.12
2023-09-21T04:59:09.265Z,12.12
2023-09-21T05:00:09.258Z,12.13
2023-09-21T05:01:09.224Z,12.13
2023-09-21T05:02:09.232Z,12.14
2023-09-21T05:03:09.262Z,12.14
2023-09-21T05:04:09.273Z,12.16
2023-09-21T05:05:09.203Z,12.16
2023-09-21T05:06:09.330Z,12.17
2023-09-21T05:07:09.141Z,12.19
2023-09-21T05:08:09.119Z,12.21
2023-09-21T05:09:09.173Z,12.24
2023-09-21T05:10:09.118Z,12.28
2023-09-21T05:11:09.121Z,12.29
2023-09-21T05:12:09.114Z,12.31
2023-09-21T05:13:09.081Z,12.31
2023-09-21T05:14:09.048Z,12.34
2023-09-21T05:15:09.076Z,12.34
2023-09-21T05:16:09.061Z,12.37
2023-09-21T05:17:09.034Z,12.38
2023-09-21T05:18:09.120Z,12.41
2023-09-21T05:19:09.019Z,12.45
2023-09-21T05:20:09.002Z,12.49
2023-09-21T05:21:09.094Z,12.52
2023-09-21T05:22:08.971Z,12.53
2023-09-21T05:23:09.008Z,12.56
2023-09-21T05:24:08.964Z,12.57
2023-09-21T05:25:09.039Z,12.59
2023-09-21T05:26:08.972Z,12.62
2023-09-21T05:27:08.981Z,12.65
2023-09-21T05:28:08.917Z,12.67
2023-09-21T05:29:08.908Z,12.71
2023-09-21T05:30:08.916Z,12.72
2023-09-21T05:31:08.912Z,12.72
2023-09-21T05:32:08.976Z,12.74
2023-09-21T05:33:09.099Z,12.74
2023-09-21T05:34:09.109Z,12.77
2023-09-21T05:35:08.920Z,12.77
2023-09-21T05:36:08.884Z,12.79
2023-09-21T05:37:08.847Z,12.79
2023-09-21T05:38:08.819Z,12.82
2023-09-21T05:39:08.864Z,12.83
2023-09-21T05:40:09.256Z,12.87
2023-09-21T05:41:08.785Z,12.89
2023-09-21T05:42:08.783Z,12.95
2023-09-21T05:43:08.774Z,12.97
2023-09-21T05:44:08.777Z,13.01
2023-09-21T05:45:08.762Z,13.05
2023-09-21T05:46:08.717Z,13.10
2023-09-21T05:47:08.709Z,13.14
2023-09-21T05:48:08.863Z,13.17
2023-09-21T05:49:09.444Z,13.22
2023-09-21T05:50:08.674Z,13.25
2023-09-21T05:51:08.742Z,13.28
2023-09-21T05:52:08.631Z,13.30
2023-09-21T05:53:08.637Z,13.36
2023-09-21T05:54:08.663Z,13.41
2023-09-21T05:55:08.632Z,13.44
2023-09-21T05:56:08.594Z,13.48
2023-09-21T05:57:08.632Z,13.52
2023-09-21T05:58:08.564Z,13.57
2023-09-21T05:59:08.589Z,13.60
2023-09-21T06:00:08.567Z,13.66
2023-09-21T06:01:08.614Z,13.69
2023-09-21T06:02:08.643Z,13.71
2023-09-21T06:03:09.777Z,13.75
2023-09-21T06:04:08.585Z,13.81
2023-09-21T06:05:08.530Z,13.82
2023-09-21T06:06:08.545Z,13.87
2023-09-21T06:07:08.499Z,13.88
2023-09-21T06:08:08.478Z,13.95
2023-09-21T06:09:08.648Z,13.96
2023-09-21T06:10:08.449Z,14.00
2023-09-21T06:11:08.443Z,14.04
2023-09-21T06:12:09.011Z,14.09
2023-09-21T06:13:08.456Z,14.17
2023-09-21T06:14:08.389Z,14.25
2023-09-21T06:15:08.434Z,14.42
2023-09-21T06:16:08.386Z,14.51
2023-09-21T06:17:08.391Z,14.55
2023-09-21T06:18:08.378Z,14.64
2023-09-21T06:19:08.371Z,14.75
2023-09-21T06:20:08.318Z,14.88
2023-09-21T06:21:08.410Z,14.95
2023-09-21T06:22:08.308Z,15.01
2023-09-21T06:23:08.340Z,15.07
2023-09-21T06:24:08.315Z,15.13
2023-09-21T06:25:08.309Z,15.20
2023-09-21T06:26:08.267Z,15.29
2023-09-21T06:27:08.398Z,15.38
2023-09-21T06:28:08.250Z,15.50
2023-09-21T06:29:08.274Z,15.65
2023-09-21T06:30:08.242Z,15.89
2023-09-21T06:31:08.243Z,16.17
2023-09-21T06:32:13.219Z,16.43
2023-09-21T06:33:08.274Z,16.57
2023-09-21T06:34:08.192Z,16.63
2023-09-21T06:35:08.208Z,16.76
2023-09-21T06:36:08.182Z,16.96
2023-09-21T06:37:08.181Z,17.18
2023-09-21T06:38:08.134Z,17.36
2023-09-21T06:39:08.148Z,17.41
2023-09-21T06:40:08.133Z,17.55
2023-09-21T06:41:08.123Z,17.68
2023-09-21T06:42:08.185Z,17.89
2023-09-21T06:43:08.124Z,18.10
2023-09-21T06:44:08.075Z,18.32
2023-09-21T06:45:08.153Z,18.47
2023-09-21T06:46:08.089Z,18.65
2023-09-21T06:47:08.067Z,18.80
2023-09-21T06:48:08.075Z,19.00
2023-09-21T06:49:11.395Z,19.16
2023-09-21T06:50:08.001Z,19.33
2023-09-21T06:51:08.019Z,19.54
2023-09-21T06:52:07.978Z,19.66
2023-09-21T06:53:07.995Z,19.74
2023-09-21T06:54:08.038Z,19.83
2023-09-21T06:55:07.983Z,19.81
2023-09-21T06:56:07.937Z,19.87
2023-09-21T06:57:07.974Z,19.99
2023-09-21T06:58:07.938Z,20.14
2023-09-21T06:59:08.003Z,20.28
2023-09-21T07:00:07.922Z,20.42
2023-09-21T07:01:07.955Z,20.57
2023-09-21T07:02:07.983Z,20.77
2023-09-21T07:03:08.119Z,20.94
2023-09-21T07:04:07.894Z,21.07
2023-09-21T07:05:07.884Z,21.14
2023-09-21T07:06:07.886Z,21.13
2023-09-21T07:07:08.198Z,21.09
2023-09-21T07:08:07.812Z,21.07
2023-09-21T07:09:07.869Z,21.17
2023-09-21T07:10:07.790Z,21.29
2023-09-21T07:11:07.854Z,21.42
2023-09-21T07:12:07.784Z,21.58
2023-09-21T07:13:07.770Z,21.59
2023-09-21T07:14:07.731Z,21.37
2023-09-21T07:15:07.764Z,21.19
2023-09-21T07:16:07.746Z,21.22
2023-09-21T07:17:07.737Z,21.22
2023-09-21T07:18:07.826Z,21.32
2023-09-21T07:19:07.692Z,21.50
2023-09-21T07:20:07.693Z,21.61
2023-09-21T07:21:07.753Z,21.77
2023-09-21T07:22:07.651Z,21.99
2023-09-21T07:23:07.672Z,22.21
2023-09-21T07:24:07.651Z,22.30
2023-09-21T07:25:07.623Z,22.46
2023-09-21T07:26:07.597Z,22.57
2023-09-21T07:27:07.640Z,22.67
2023-09-21T07:28:07.602Z,22.77
2023-09-21T07:29:07.593Z,22.86
2023-09-21T07:30:07.651Z,22.83
2023-09-21T07:31:07.593Z,22.94
2023-09-21T07:32:09.454Z,22.91
2023-09-21T07:33:07.696Z,22.86
2023-09-21T07:34:07.552Z,22.88
2023-09-21T07:35:07.606Z,22.86
2023-09-21T07:36:07.621Z,22.95
2023-09-21T07:37:07.514Z,23.13
2023-09-21T07:38:07.500Z,23.36
2023-09-21T07:39:07.468Z,23.47
2023-09-21T07:40:07.525Z,23.55
2023-09-21T07:41:07.459Z,23.51
2023-09-21T07:42:07.515Z,23.58
2023-09-21T07:43:07.419Z,23.47
2023-09-21T07:44:07.445Z,23.38
2023-09-21T07:45:07.415Z,23.38
2023-09-21T07:46:07.435Z,23.39
2023-09-21T07:47:07.374Z,23.61
2023-09-21T07:48:07.443Z,23.73
2023-09-21T07:49:07.367Z,23.91
2023-09-21T07:50:07.361Z,23.78
2023-09-21T07:51:07.446Z,23.91
2023-09-21T07:52:07.375Z,24.05
2023-09-21T07:53:07.314Z,24.08
2023-09-21T07:54:07.376Z,23.61
2023-09-21T07:55:07.287Z,23.23
2023-09-21T07:56:07.317Z,23.22
2023-09-21T07:57:07.341Z,23.25
2023-09-21T07:58:07.288Z,23.15
2023-09-21T07:59:07.300Z,23.36
2023-09-21T08:00:07.292Z,23.70
2023-09-21T08:01:07.225Z,24.10
2023-09-21T08:02:07.291Z,24.40
2023-09-21T08:03:07.372Z,24.58
2023-09-21T08:04:07.296Z,24.77
2023-09-21T08:05:07.318Z,24.85
2023-09-21T08:06:07.224Z,24.96
2023-09-21T08:07:07.177Z,25.02
2023-09-21T08:08:07.192Z,25.08
2023-09-21T08:09:18.859Z,25.23
2023-09-21T08:10:07.152Z,25.28
2023-09-21T08:11:07.194Z,25.10
2023-09-21T08:12:07.184Z,25.18
2023-09-21T08:13:08.228Z,25.32
2023-09-21T08:14:07.141Z,25.43
2023-09-21T08:15:07.140Z,25.42
2023-09-21T08:16:07.149Z,25.47
2023-09-21T08:17:07.056Z,25.42
2023-09-21T08:18:07.122Z,25.36
2023-09-21T08:19:07.068Z,25.36
2023-09-21T08:20:07.059Z,25.46
2023-09-21T08:21:07.107Z,25.57
2023-09-21T08:22:07.036Z,25.50
2023-09-21T08:23:06.983Z,25.60
2023-09-21T08:24:07.021Z,25.73
2023-09-21T08:25:06.981Z,25.85
2023-09-21T08:26:07.170Z,25.99
2023-09-21T08:27:08.008Z,26.15
2023-09-21T08:28:06.954Z,26.12
2023-09-21T08:29:06.942Z,25.98
2023-09-21T08:30:06.985Z,25.91
2023-09-21T08:31:06.961Z,25.97
2023-09-21T08:32:06.971Z,26.07
2023-09-21T08:33:06.990Z,26.07
2023-09-21T08:34:06.892Z,26.15
2023-09-21T08:35:06.857Z,26.20
2023-09-21T08:36:06.945Z,26.12
2023-09-21T08:37:06.844Z,26.10
2023-09-21T08:38:06.857Z,26.23
2023-09-21T08:39:06.898Z,26.35
2023-09-21T08:40:06.936Z,26.45
2023-09-21T08:41:06.806Z,26.39
2023-09-21T08:42:06.831Z,26.50
2023-09-21T08:43:06.803Z,26.52
2023-09-21T08:44:06.786Z,26.47
2023-09-21T08:45:06.792Z,26.52
2023-09-21T08:46:06.809Z,26.58
2023-09-21T08:47:06.739Z,26.67
2023-09-21T08:48:06.793Z,26.80
2023-09-21T08:49:06.730Z,26.91
2023-09-21T08:50:06.715Z,27.07
2023-09-21T08:51:06.737Z,27.18
2023-09-21T08:52:06.715Z,27.32
2023-09-21T08:53:06.687Z,27.41
2023-09-21T08:54:06.707Z,27.36
2023-09-21T08:55:06.664Z,27.34
2023-09-21T08:56:06.688Z,27.49
2023-09-21T08:57:06.654Z,27.59
2023-09-21T08:58:06.667Z,27.74
2023-09-21T08:59:06.613Z,27.78
2023-09-21T09:00:06.643Z,27.72
2023-09-21T09:01:06.589Z,27.77
2023-09-21T09:02:06.635Z,27.93
2023-09-21T09:03:06.689Z,28.07
2023-09-21T09:04:06.778Z,28.11
2023-09-21T09:05:06.550Z,28.14
2023-09-21T09:06:06.589Z,28.24
2023-09-21T09:07:06.521Z,28.29
2023-09-21T09:08:06.535Z,28.31
2023-09-21T09:09:06.699Z,28.18
2023-09-21T09:10:06.503Z,28.33
2023-09-21T09:11:06.489Z,28.48
2023-09-21T09:12:06.513Z,28.61
2023-09-21T09:13:06.455Z,28.77
2023-09-21T09:14:06.467Z,28.92
2023-09-21T09:15:06.451Z,29.05
2023-09-21T09:16:06.490Z,29.15
2023-09-21T09:17:06.417Z,29.09
2023-09-21T09:18:06.555Z,28.78
2023-09-21T09:19:06.491Z,28.46
2023-09-21T09:20:06.404Z,28.37
2023-09-21T09:21:06.410Z,28.43
2023-09-21T09:22:06.382Z,28.66
2023-09-21T09:23:06.377Z,28.52
2023-09-21T09:24:06.401Z,28.44
2023-09-21T09:25:06.380Z,28.62
2023-09-21T09:26:06.354Z,28.73
2023-09-21T09:27:06.349Z,28.70
2023-09-21T09:28:06.328Z,28.83
2023-09-21T09:29:06.297Z,28.96
2023-09-21T09:30:06.351Z,29.08
2023-09-21T09:31:06.323Z,28.88
2023-09-21T09:32:06.287Z,28.86
2023-09-21T09:33:06.342Z,28.92
2023-09-21T09:34:06.285Z,29.08
2023-09-21T09:35:06.236Z,29.19
2023-09-21T09:36:06.288Z,29.05
2023-09-21T09:37:06.227Z,28.98
2023-09-21T09:38:06.238Z,29.09
2023-09-21T09:39:06.204Z,28.70
2023-09-21T09:40:06.210Z,28.62
2023-09-21T09:41:06.184Z,28.61
2023-09-21T09:42:06.274Z,28.61
2023-09-21T09:43:06.242Z,28.73
2023-09-21T09:44:06.168Z,28.56
2023-09-21T09:45:06.132Z,28.51
2023-09-21T09:46:06.248Z,28.71
2023-09-21T09:47:06.116Z,29.09
2023-09-21T09:48:06.231Z,29.52
2023-09-21T09:49:06.088Z,29.85
2023-09-21T09:50:06.100Z,29.97
2023-09-21T09:51:06.080Z,30.10
2023-09-21T09:52:06.119Z,30.04
2023-09-21T09:53:06.092Z,30.20
2023-09-21T09:54:06.097Z,30.38
2023-09-21T09:55:06.026Z,30.37
2023-09-21T09:56:06.058Z,30.43
2023-09-21T09:57:06.052Z,30.60
2023-09-21T09:58:06.023Z,30.79
2023-09-21T09:59:06.012Z,30.76
2023-09-21T10:00:06.030Z,30.65
2023-09-21T10:01:05.985Z,30.62
2023-09-21T10:02:06.104Z,30.10
2023-09-21T10:03:06.097Z,30.07
2023-09-21T10:04:06.689Z,30.16
2023-09-21T10:05:05.939Z,30.22
2023-09-21T10:06:05.963Z,30.39
2023-09-21T10:07:05.914Z,30.61
2023-09-21T10:08:05.922Z,30.65
2023-09-21T10:09:05.912Z,30.73
2023-09-21T10:10:05.893Z,30.80
2023-09-21T10:11:05.886Z,30.62
2023-09-21T10:12:06.004Z,30.43
2023-09-21T10:13:05.849Z,30.37
2023-09-21T10:14:05.861Z,30.42
2023-09-21T10:15:05.856Z,30.45
2023-09-21T10:16:05.937Z,30.45
2023-09-21T10:17:05.837Z,30.54
2023-09-21T10:18:05.928Z,30.77
2023-09-21T10:19:05.785Z,30.89
2023-09-21T10:20:05.813Z,30.94
2023-09-21T10:21:05.826Z,30.76
2023-09-21T10:22:05.811Z,30.76
2023-09-21T10:23:05.764Z,30.95
2023-09-21T10:24:05.862Z,31.31
2023-09-21T10:25:05.734Z,31.58
2023-09-21T10:26:05.736Z,31.89
2023-09-21T10:27:05.761Z,32.04
2023-09-21T10:28:05.749Z,32.10
2023-09-21T10:29:05.709Z,32.26
2023-09-21T10:30:05.755Z,32.45
2023-09-21T10:31:05.735Z,32.52
2023-09-21T10:32:05.689Z,32.33
2023-09-21T10:33:05.878Z,31.91
2023-09-21T10:34:05.659Z,31.70
2023-09-21T10:35:05.627Z,31.26
2023-09-21T10:36:05.900Z,30.97
2023-09-21T10:37:05.639Z,30.75
2023-09-21T10:38:05.624Z,30.67
2023-09-21T10:39:05.648Z,30.58
2023-09-21T10:40:05.609Z,30.58
2023-09-21T10:41:05.592Z,30.55
2023-09-21T10:42:05.645Z,30.53
2023-09-21T10:43:05.561Z,30.65
2023-09-21T10:44:05.577Z,30.84
2023-09-21T10:45:05.871Z,31.01
2023-09-21T10:46:05.619Z,31.12
2023-09-21T10:47:05.669Z,31.02
2023-09-21T10:48:05.631Z,31.12
2023-09-21T10:49:05.645Z,31.31
2023-09-21T10:50:05.516Z,31.38
2023-09-21T10:51:05.503Z,31.09
2023-09-21T10:52:05.497Z,31.16
2023-09-21T10:53:05.463Z,31.28
2023-09-21T10:54:08.624Z,31.32
2023-09-21T10:55:05.446Z,31.29
2023-09-21T10:56:05.468Z,31.20
2023-09-21T10:57:05.446Z,31.09
2023-09-21T10:58:05.419Z,30.97
2023-09-21T10:59:05.396Z,30.94
2023-09-21T11:00:12.201Z,30.82
2023-09-21T11:01:05.490Z,30.72
2023-09-21T11:02:05.393Z,30.86
2023-09-21T11:03:05.407Z,31.02
2023-09-21T11:04:05.375Z,31.20
2023-09-21T11:05:05.375Z,31.31
2023-09-21T11:06:05.392Z,31.38
2023-09-21T11:07:05.323Z,31.48
2023-09-21T11:08:05.329Z,31.73
2023-09-21T11:09:05.315Z,32.01
2023-09-21T11:10:05.335Z,32.26
2023-09-21T11:11:05.310Z,32.32
2023-09-21T11:12:05.307Z,32.43
2023-09-21T11:13:05.257Z,32.57
2023-09-21T11:14:05.281Z,32.67
2023-09-21T11:15:05.256Z,32.67
2023-09-21T11:16:05.348Z,32.74
2023-09-21T11:17:05.251Z,32.87
2023-09-21T11:18:05.306Z,33.06
2023-09-21T11:19:05.210Z,33.21
2023-09-21T11:20:05.369Z,33.15
2023-09-21T11:21:05.685Z,33.11
2023-09-21T11:22:05.319Z,33.15
2023-09-21T11:23:05.192Z,33.15
2023-09-21T11:24:05.234Z,33.18
2023-09-21T11:25:06.154Z,33.21
2023-09-21T11:26:05.171Z,33.01
2023-09-21T11:27:05.161Z,32.77
2023-09-21T11:28:05.133Z,32.75
2023-09-21T11:29:05.360Z,32.78
2023-09-21T11:30:05.138Z,32.79
2023-09-21T11:31:05.116Z,32.70
2023-09-21T11:32:05.104Z,32.59
2023-09-21T11:33:05.121Z,32.51
2023-09-21T11:34:05.061Z,32.59
2023-09-21T11:35:05.054Z,32.70
2023-09-21T11:36:05.105Z,32.85
2023-09-21T11:37:05.034Z,33.12
2023-09-21T11:38:05.260Z,33.41
2023-09-21T11:39:05.034Z,33.54
2023-09-21T11:40:05.025Z,33.47
2023-09-21T11:41:04.985Z,33.38
2023-09-21T11:42:05.052Z,32.99
2023-09-21T11:43:04.988Z,33.00
2023-09-21T11:44:04.977Z,33.06
2023-09-21T11:45:05.021Z,33.21
2023-09-21T11:46:05.010Z,33.45
2023-09-21T11:47:05.001Z,33.59
2023-09-21T11:48:05.089Z,33.50
2023-09-21T11:49:04.954Z,33.50
2023-09-21T11:50:04.940Z,33.28
2023-09-21T11:51:04.945Z,33.19
2023-09-21T11:52:06.484Z,33.15
2023-09-21T11:53:04.889Z,33.29
2023-09-21T11:54:05.808Z,33.31
2023-09-21T11:55:04.912Z,32.88
2023-09-21T11:56:04.873Z,32.74
2023-09-21T11:57:04.885Z,32.60
2023-09-21T11:58:04.829Z,32.35
2023-09-21T11:59:04.850Z,32.29
2023-09-21T12:00:04.857Z,32.43
2023-09-21T12:01:04.872Z,32.67
2023-09-21T12:02:04.788Z,32.96
2023-09-21T12:03:05.047Z,33.29
2023-09-21T12:04:04.912Z,33.49
2023-09-21T12:05:04.765Z,33.56
2023-09-21T12:06:04.796Z,33.59
2023-09-21T12:07:04.762Z,33.45
2023-09-21T12:08:04.718Z,33.45
2023-09-21T12:09:04.777Z,33.59
2023-09-21T12:10:04.702Z,33.69
2023-09-21T12:11:04.719Z,33.61
2023-09-21T12:12:04.724Z,33.23
2023-09-21T12:13:04.728Z,32.79
2023-09-21T12:14:04.684Z,32.55
2023-09-21T12:15:04.700Z,32.62
2023-09-21T12:16:04.676Z,31.91
2023-09-21T12:17:04.748Z,31.72
2023-09-21T12:18:04.701Z,31.84
2023-09-21T12:19:04.665Z,32.07
2023-09-21T12:20:04.626Z,32.28
2023-09-21T12:21:04.649Z,32.52
2023-09-21T12:22:04.758Z,32.84
2023-09-21T12:23:04.597Z,33.14
2023-09-21T12:24:04.761Z,33.32
2023-09-21T12:25:04.607Z,33.38
2023-09-21T12:26:04.590Z,33.51
2023-09-21T12:27:04.649Z,33.59
2023-09-21T12:28:04.541Z,33.71
2023-09-21T12:29:04.557Z,33.79
2023-09-21T12:30:04.587Z,33.86
2023-09-21T12:31:04.552Z,33.93
2023-09-21T12:32:06.670Z,33.78
2023-09-21T12:33:04.648Z,33.78
2023-09-21T12:34:04.588Z,33.68
2023-09-21T12:35:04.502Z,33.60
2023-09-21T12:36:04.556Z,33.53
2023-09-21T12:37:04.540Z,33.57
2023-09-21T12:38:04.461Z,33.47
2023-09-21T12:39:04.476Z,33.47
2023-09-21T12:40:04.429Z,32.63
2023-09-21T12:41:04.490Z,32.43
2023-09-21T12:42:04.447Z,32.43
2023-09-21T12:43:04.440Z,32.55
2023-09-21T12:44:04.387Z,32.69
2023-09-21T12:45:04.493Z,32.81
2023-09-21T12:46:04.418Z,33.01
2023-09-21T12:47:04.377Z,33.22
2023-09-21T12:48:04.425Z,33.06
2023-09-21T12:49:04.360Z,33.00
2023-09-21T12:50:04.337Z,33.11
2023-09-21T12:51:04.381Z,33.00
2023-09-21T12:52:04.351Z,33.15